Time;durP1;ratioP1;P1;durP2;ratioP2;P2;SDS_P1;SDS_P2;PMS_P1;PMS_P2;Temp;Humidity;BMP_temperature;BMP_pressure;BME280_temperature;BME280_humidity;BME280_pressure;Samples;Min_cycle;Max_cycle;Signal;HPM_P1;HPM_P2
2021/12/30 00:01:45;;;;;;;6.07;5.82;;;;;;;;;;5015844;28;20356;-89
2021/12/30 00:04:11;;;;;;;1.33;1.33;;;;;;;;;;5041092;28;20114;-89
2021/12/30 00:06:41;;;;;;;3.10;3.00;;;;;;;;;;5045006;28;20025;-89
2021/12/30 00:09:08;;;;;;;9.98;9.48;;;;;;;;;;5044981;28;20290;-89
2021/12/30 00:11:34;;;;;;;4.55;4.38;;;;;;;;;;5044990;28;20055;-89
2021/12/30 00:14:00;;;;;;;11.85;11.30;;;;;;;;;;5027738;28;20037;-88
2021/12/30 00:16:26;;;;;;;3.27;3.17;;;;;;;;;;5042624;28;20095;-89
2021/12/30 00:18:52;;;;;;;1.90;1.90;;;;;;;;;;5043930;28;20029;-88
2021/12/30 00:21:20;;;;;;;0.30;0.30;;;;;;;;;;5044571;28;20025;-88
2021/12/30 00:23:46;;;;;;;2.58;2.47;;;;;;;;;;5044706;28;20033;-88
2021/12/30 00:26:13;;;;;;;0.40;0.40;;;;;;;;;;5041098;28;20021;-89
2021/12/30 00:28:39;;;;;;;3.38;3.28;;;;;;;;;;5045028;28;20599;-90
2021/12/30 00:31:06;;;;;;;0.95;0.95;;;;;;;;;;5044216;28;20037;-89
2021/12/30 00:33:34;;;;;;;1.92;1.92;;;;;;;;;;5044633;28;20887;-88
2021/12/30 00:36:02;;;;;;;1.75;1.75;;;;;;;;;;5045292;28;20055;-88
2021/12/30 00:38:28;;;;;;;4.90;4.70;;;;;;;;;;5043784;28;20497;-88
2021/12/30 00:40:54;;;;;;;6.37;6.10;;;;;;;;;;5040997;28;20060;-89
2021/12/30 00:43:20;;;;;;;0.50;0.50;;;;;;;;;;5044295;28;20367;-90
2021/12/30 00:45:46;;;;;;;7.13;6.82;;;;;;;;;;5044214;28;20520;-88
2021/12/30 00:48:12;;;;;;;1.60;1.60;;;;;;;;;;5026297;28;20032;-88
2021/12/30 00:50:39;;;;;;;7.77;7.43;;;;;;;;;;5044412;28;20268;-88
2021/12/30 00:53:06;;;;;;;10.57;10.07;;;;;;;;;;5045527;28;20287;-88
2021/12/30 00:55:32;;;;;;;;;;;;;;;;;;5044223;28;20144;-88
2021/12/30 00:57:58;;;;;;;0.70;0.70;;;;;;;;;;5044305;28;20023;-88
2021/12/30 01:00:24;;;;;;;2.20;2.20;;;;;;;;;;5043846;28;20033;-89
2021/12/30 01:02:50;;;;;;;21.60;20.47;;;;;;;;;;5044176;28;20822;-89
2021/12/30 01:05:17;;;;;;;16.35;15.55;;;;;;;;;;5045323;28;20116;-88
2021/12/30 01:07:43;;;;;;;5.45;5.25;;;;;;;;;;5044410;28;20535;-89
2021/12/30 01:10:10;;;;;;;3.80;3.70;;;;;;;;;;5044752;28;20094;-90
2021/12/30 01:12:36;;;;;;;12.15;11.50;;;;;;;;;;5022270;28;20029;-89
2021/12/30 01:15:07;;;;;;;0.20;0.20;;;;;;;;;;5024626;28;20071;-90
2021/12/30 01:18:09;;;;;;;0.20;0.20;;;;;;;;;;5044702;28;20263;-89
2021/12/30 01:20:21;;;;;;;0.25;0.25;;;;;;;;;;5040396;28;20037;-89
2021/12/30 01:22:48;;;;;;;0.30;0.30;;;;;;;;;;5043964;28;20083;-89
2021/12/30 01:25:15;;;;;;;0.20;0.20;;;;;;;;;;5037418;28;20072;-89
2021/12/30 01:27:41;;;;;;;0.35;0.35;;;;;;;;;;5017668;28;20025;-89
2021/12/30 01:30:13;;;;;;;0.30;0.30;;;;;;;;;;5043128;28;20040;-89
2021/12/30 01:32:39;;;;;;;0.90;0.90;;;;;;;;;;5043884;28;20044;-89
2021/12/30 01:35:08;;;;;;;0.30;0.30;;;;;;;;;;5040021;28;20037;-90
2021/12/30 01:37:34;;;;;;;0.40;0.40;;;;;;;;;;5043274;28;20039;-89
2021/12/30 01:40:00;;;;;;;1.07;1.07;;;;;;;;;;5043702;28;20041;-88
2021/12/30 01:42:27;;;;;;;0.57;0.57;;;;;;;;;;5043250;28;20814;-88
2021/12/30 01:44:53;;;;;;;0.60;0.60;;;;;;;;;;5042821;28;20039;-88
2021/12/30 01:47:19;;;;;;;1.80;1.80;;;;;;;;;;5044200;28;20063;-89
2021/12/30 01:49:46;;;;;;;3.90;3.80;;;;;;;;;;5043576;28;20029;-89
2021/12/30 01:52:12;;;;;;;0.77;0.77;;;;;;;;;;5043806;28;20091;-89
2021/12/30 01:54:38;;;;;;;2.13;2.08;;;;;;;;;;5042992;28;20032;-89
2021/12/30 01:57:06;;;;;;;1.50;1.50;;;;;;;;;;5023798;28;20116;-88
2021/12/30 01:59:32;;;;;;;1.77;1.77;;;;;;;;;;5024346;28;20682;-88
2021/12/30 02:01:59;;;;;;;0.60;0.60;;;;;;;;;;5039571;28;20039;-89
2021/12/30 02:04:26;;;;;;;0.70;0.70;;;;;;;;;;5041292;28;20052;-89
2021/12/30 02:06:53;;;;;;;14.13;13.43;;;;;;;;;;5024202;28;20571;-89
2021/12/30 02:09:20;;;;;;;1.48;1.48;;;;;;;;;;5042853;28;20029;-88
2021/12/30 02:11:46;;;;;;;1.85;1.85;;;;;;;;;;5042469;28;20626;-89
2021/12/30 02:14:12;;;;;;;4.53;4.35;;;;;;;;;;5043056;28;20040;-89
2021/12/30 02:16:39;;;;;;;3.33;3.23;;;;;;;;;;5038262;28;20124;-89
2021/12/30 02:19:05;;;;;;;8.93;8.52;;;;;;;;;;5042421;28;20033;-89
2021/12/30 02:21:31;;;;;;;0.60;0.60;;;;;;;;;;5037950;28;20036;-89
2021/12/30 02:23:58;;;;;;;4.37;4.20;;;;;;;;;;5042899;28;20033;-89
2021/12/30 02:26:24;;;;;;;;;;;;;;;;;;5043270;28;20079;-88
2021/12/30 02:28:50;;;;;;;1.20;1.20;;;;;;;;;;5042801;28;20454;-87
2021/12/30 02:31:21;;;;;;;0.88;0.88;;;;;;;;;;5024379;28;20355;-89
2021/12/30 02:33:47;;;;;;;9.18;8.77;;;;;;;;;;5042163;28;20502;-88
2021/12/30 02:36:15;;;;;;;9.93;9.48;;;;;;;;;;5042271;28;20040;-89
2021/12/30 02:38:44;;;;;;;2.40;2.33;;;;;;;;;;5042230;28;20129;-89
2021/12/30 02:41:14;;;;;;;8.23;7.85;;;;;;;;;;5043021;28;20595;-88
2021/12/30 02:43:41;;;;;;;22.67;21.50;;;;;;;;;;5042092;28;20116;-89
2021/12/30 02:46:07;;;;;;;16.42;15.60;;;;;;;;;;5041992;28;20064;-90
2021/12/30 02:48:34;;;;;;;6.72;6.43;;;;;;;;;;5038024;28;20034;-88
2021/12/30 02:51:02;;;;;;;7.78;7.47;;;;;;;;;;5042368;28;20094;-88
2021/12/30 02:53:28;;;;;;;31.20;29.55;;;;;;;;;;5041302;28;20486;-89
2021/12/30 02:55:54;;;;;;;34.72;32.85;;;;;;;;;;5024211;28;20571;-89
2021/12/30 02:58:24;;;;;;;26.45;24.98;;;;;;;;;;5042144;28;20133;-88
2021/12/30 03:00:55;;;;;;;15.35;14.57;;;;;;;;;;5042547;28;20122;-89
2021/12/30 03:03:22;;;;;;;22.48;21.33;;;;;;;;;;5042367;28;20078;-88
2021/12/30 03:05:49;;;;;;;56.28;53.30;;;;;;;;;;5008136;28;20036;-89
2021/12/30 03:08:15;;;;;;;30.33;28.75;;;;;;;;;;5043188;28;20107;-89
2021/12/30 03:10:42;;;;;;;8.90;8.50;;;;;;;;;;5041908;28;20045;-88
2021/12/30 03:13:09;;;;;;;37.22;35.22;;;;;;;;;;5037990;28;20040;-89
2021/12/30 03:15:38;;;;;;;21.90;20.80;;;;;;;;;;5037375;28;20044;-88
2021/12/30 03:18:04;;;;;;;35.30;33.40;;;;;;;;;;5039906;28;20082;-88
2021/12/30 03:20:35;;;;;;;12.35;11.75;;;;;;;;;;5039743;28;20137;-88
2021/12/30 03:23:01;;;;;;;23.98;22.77;;;;;;;;;;5036344;28;20051;-89
2021/12/30 03:25:27;;;;;;;79.90;75.32;;;;;;;;;;5022931;28;20080;-90
2021/12/30 03:27:53;;;;;;;70.33;66.43;;;;;;;;;;5037745;28;20128;-89
2021/12/30 03:30:19;;;;;;;26.80;25.50;;;;;;;;;;5024279;28;20025;-89
2021/12/30 03:32:46;;;;;;;24.63;23.43;;;;;;;;;;5023793;28;20040;-87
2021/12/30 03:35:12;;;;;;;86.70;81.75;;;;;;;;;;5042732;28;20060;-90
2021/12/30 03:37:39;;;;;;;0.60;0.60;;;;;;;;;;5037620;28;20762;-89
2021/12/30 03:40:06;;;;;;;1.50;1.50;;;;;;;;;;5041900;28;20037;-88
2021/12/30 03:42:32;;;;;;;12.30;11.73;;;;;;;;;;5037549;28;20119;-90
2021/12/30 03:45:00;;;;;;;24.93;23.57;;;;;;;;;;5024444;28;20036;-90
2021/12/30 03:47:26;;;;;;;1.60;1.60;;;;;;;;;;5042414;28;20059;-89
2021/12/30 03:49:53;;;;;;;2.83;2.72;;;;;;;;;;5035588;28;20456;-91
2021/12/30 03:52:24;;;;;;;4.40;4.25;;;;;;;;;;5042029;28;20887;-89
2021/12/30 03:54:50;;;;;;;1.05;1.05;;;;;;;;;;5021267;28;20059;-91
2021/12/30 03:57:16;;;;;;;2.67;2.63;;;;;;;;;;5042500;28;20025;-89
2021/12/30 03:59:42;;;;;;;2.57;2.47;;;;;;;;;;5010684;28;20112;-90
2021/12/30 04:02:08;;;;;;;1.98;1.98;;;;;;;;;;5046266;28;20468;-90
2021/12/30 04:04:34;;;;;;;8.27;7.90;;;;;;;;;;5043173;28;20484;-90
2021/12/30 04:07:01;;;;;;;9.50;9.07;;;;;;;;;;5045773;28;20608;-89
2021/12/30 04:09:27;;;;;;;2.80;2.70;;;;;;;;;;5045596;28;20123;-90
2021/12/30 04:11:53;;;;;;;3.60;3.50;;;;;;;;;;5045753;28;20029;-90
2021/12/30 04:14:19;;;;;;;32.00;30.25;;;;;;;;;;5028354;28;20068;-90
2021/12/30 04:16:45;;;;;;;20.23;19.17;;;;;;;;;;5045508;28;20045;-89
2021/12/30 04:19:11;;;;;;;6.70;6.40;;;;;;;;;;5045528;28;20779;-90
2021/12/30 04:21:37;;;;;;;16.67;15.80;;;;;;;;;;5045207;28;20064;-89
2021/12/30 04:24:04;;;;;;;17.83;16.90;;;;;;;;;;5043546;28;20036;-89
2021/12/30 04:26:30;;;;;;;13.50;12.80;;;;;;;;;;5024762;28;20106;-89
2021/12/30 04:28:57;;;;;;;3.47;3.38;;;;;;;;;;5044818;28;20037;-89
2021/12/30 04:31:23;;;;;;;1.63;1.63;;;;;;;;;;5045016;28;20033;-89
2021/12/30 04:33:49;;;;;;;1.65;1.65;;;;;;;;;;5045383;28;20049;-90
2021/12/30 04:36:15;;;;;;;1.10;1.10;;;;;;;;;;5045851;28;20048;-91
2021/12/30 04:38:42;;;;;;;1.50;1.50;;;;;;;;;;5045490;28;20036;-90
2021/12/30 04:41:08;;;;;;;4.85;4.65;;;;;;;;;;5029786;28;20053;-90
2021/12/30 04:43:34;;;;;;;8.23;7.88;;;;;;;;;;5033552;28;20112;-90
2021/12/30 04:46:03;;;;;;;2.80;2.70;;;;;;;;;;5045245;28;20057;-89
2021/12/30 04:48:29;;;;;;;10.48;10.00;;;;;;;;;;5027236;28;20044;-91
2021/12/30 04:50:55;;;;;;;21.33;20.23;;;;;;;;;;5027812;28;20041;-90
2021/12/30 04:53:22;;;;;;;3.35;3.25;;;;;;;;;;5027568;28;20036;-91
2021/12/30 04:55:48;;;;;;;5.90;5.70;;;;;;;;;;5045458;28;20033;-90
2021/12/30 04:58:15;;;;;;;5.93;5.68;;;;;;;;;;5026832;28;20370;-89
2021/12/30 05:00:41;;;;;;;23.27;22.08;;;;;;;;;;5044544;28;20305;-90
2021/12/30 05:03:14;;;;;;;2.30;2.28;;;;;;;;;;5044459;28;20486;-90
2021/12/30 05:05:41;;;;;;;7.55;7.22;;;;;;;;;;5044080;28;20036;-88
2021/12/30 05:08:07;;;;;;;4.13;4.00;;;;;;;;;;5026213;28;20029;-89
2021/12/30 05:10:33;;;;;;;13.15;12.50;;;;;;;;;;5042166;28;20029;-89
2021/12/30 05:13:00;;;;;;;12.13;11.55;;;;;;;;;;5044987;28;20025;-89
2021/12/30 05:15:26;;;;;;;18.60;17.65;;;;;;;;;;5022100;28;20559;-90
2021/12/30 05:17:52;;;;;;;3.17;3.07;;;;;;;;;;5044696;28;20874;-90
2021/12/30 05:20:19;;;;;;;8.35;7.97;;;;;;;;;;5023214;28;20029;-90
2021/12/30 05:22:45;;;;;;;4.85;4.65;;;;;;;;;;5014688;28;20497;-88
2021/12/30 05:25:12;;;;;;;3.73;3.63;;;;;;;;;;5039097;28;20120;-90
2021/12/30 05:27:38;;;;;;;3.10;3.00;;;;;;;;;;5043964;28;20271;-90
2021/12/30 05:30:05;;;;;;;16.73;15.90;;;;;;;;;;5042493;28;20095;-88
2021/12/30 05:32:31;;;;;;;5.22;5.03;;;;;;;;;;5041599;28;20064;-89
2021/12/30 05:34:57;;;;;;;19.50;18.50;;;;;;;;;;5022887;28;20025;-89
2021/12/30 05:37:24;;;;;;;24.27;23.00;;;;;;;;;;5043898;28;20089;-89
2021/12/30 05:39:50;;;;;;;18.90;17.95;;;;;;;;;;5021538;28;20116;-90
2021/12/30 05:42:16;;;;;;;0.60;0.60;;;;;;;;;;5043085;28;20052;-89
2021/12/30 05:44:42;;;;;;;1.70;1.70;;;;;;;;;;5043177;28;20048;-90
2021/12/30 05:47:08;;;;;;;8.25;7.88;;;;;;;;;;5044628;28;20037;-89
2021/12/30 05:49:34;;;;;;;0.60;0.60;;;;;;;;;;5025089;28;20049;-90
2021/12/30 05:52:01;;;;;;;7.47;7.17;;;;;;;;;;5043573;28;20043;-91
2021/12/30 05:54:27;;;;;;;;;;;;;;;;;;5044258;28;20288;-92
2021/12/30 05:56:53;;;;;;;0.28;0.28;;;;;;;;;;5041635;28;19920;-90
2021/12/30 05:59:19;;;;;;;0.30;0.30;;;;;;;;;;5044442;28;20445;-88
2021/12/30 06:01:45;;;;;;;1.33;1.33;;;;;;;;;;5039045;28;20104;-89
2021/12/30 06:04:11;;;;;;;0.60;0.60;;;;;;;;;;5042314;28;20292;-90
2021/12/30 06:06:37;;;;;;;0.90;0.90;;;;;;;;;;5042369;28;20025;-89
2021/12/30 06:09:03;;;;;;;0.30;0.30;;;;;;;;;;5043119;28;20024;-88
2021/12/30 06:11:30;;;;;;;0.30;0.30;;;;;;;;;;5025240;28;20029;-90
2021/12/30 06:13:56;;;;;;;0.30;0.30;;;;;;;;;;5043950;28;20118;-90
2021/12/30 06:16:22;;;;;;;0.77;0.77;;;;;;;;;;5042210;28;20365;-89
2021/12/30 06:18:48;;;;;;;0.32;0.32;;;;;;;;;;5043073;28;20036;-91
2021/12/30 06:21:14;;;;;;;0.57;0.57;;;;;;;;;;5043095;28;20029;-88
2021/12/30 06:23:40;;;;;;;0.38;0.38;;;;;;;;;;5043218;28;20540;-90
2021/12/30 06:26:06;;;;;;;0.40;0.40;;;;;;;;;;5044002;28;20040;-89
2021/12/30 06:28:32;;;;;;;0.50;0.50;;;;;;;;;;5042869;28;20025;-90
2021/12/30 06:30:58;;;;;;;0.23;0.23;;;;;;;;;;5043242;28;20028;-89
2021/12/30 06:33:24;;;;;;;0.10;0.10;;;;;;;;;;5020431;28;20029;-89
2021/12/30 06:35:50;;;;;;;0.10;0.10;;;;;;;;;;5008699;28;20417;-89
2021/12/30 06:38:16;;;;;;;0.10;0.10;;;;;;;;;;5043465;28;20128;-89
2021/12/30 06:40:42;;;;;;;0.17;0.17;;;;;;;;;;5042445;28;20091;-89
2021/12/30 06:43:09;;;;;;;0.20;0.20;;;;;;;;;;5024925;28;20356;-89
2021/12/30 06:45:35;;;;;;;0.20;0.20;;;;;;;;;;5042530;28;20028;-89
2021/12/30 06:48:01;;;;;;;0.17;0.17;;;;;;;;;;5042404;28;20031;-89
2021/12/30 06:50:31;;;;;;;0.20;0.20;;;;;;;;;;5043197;28;20116;-89
2021/12/30 06:52:58;;;;;;;0.20;0.20;;;;;;;;;;5037133;28;20021;-89
2021/12/30 06:55:24;;;;;;;0.10;0.10;;;;;;;;;;5042335;28;20041;-89
2021/12/30 06:57:50;;;;;;;0.10;0.10;;;;;;;;;;5024623;28;20036;-89
2021/12/30 07:00:16;;;;;;;0.20;0.20;;;;;;;;;;5024618;28;20685;-90
2021/12/30 07:02:43;;;;;;;0.40;0.40;;;;;;;;;;5042378;28;20119;-89
2021/12/30 07:05:10;;;;;;;0.20;0.20;;;;;;;;;;5043442;28;20040;-88
2021/12/30 07:07:36;;;;;;;0.20;0.20;;;;;;;;;;5042523;28;20120;-89
2021/12/30 07:10:03;;;;;;;0.10;0.10;;;;;;;;;;5042481;28;20135;-88
2021/12/30 07:12:29;;;;;;;0.10;0.10;;;;;;;;;;5042293;28;20032;-90
2021/12/30 07:14:57;;;;;;;0.10;0.10;;;;;;;;;;5042421;28;20704;-90
2021/12/30 07:17:23;;;;;;;0.20;0.20;;;;;;;;;;5042915;28;20283;-89
2021/12/30 07:19:49;;;;;;;0.10;0.10;;;;;;;;;;5042890;28;20036;-90
2021/12/30 07:22:15;;;;;;;0.10;0.10;;;;;;;;;;5042498;28;20028;-89
2021/12/30 07:24:41;;;;;;;0.20;0.20;;;;;;;;;;5042863;28;20025;-90
2021/12/30 07:27:07;;;;;;;0.10;0.10;;;;;;;;;;5041604;28;20801;-90
2021/12/30 07:29:33;;;;;;;0.20;0.20;;;;;;;;;;5024520;28;20853;-88
2021/12/30 07:31:59;;;;;;;0.20;0.20;;;;;;;;;;5046254;28;20056;-86
2021/12/30 07:34:25;;;;;;;0.17;0.17;;;;;;;;;;5046125;28;20021;-89
2021/12/30 07:36:51;;;;;;;0.20;0.20;;;;;;;;;;5046109;28;20424;-88
2021/12/30 07:39:17;;;;;;;0.10;0.10;;;;;;;;;;5042359;28;20018;-88
2021/12/30 07:41:43;;;;;;;0.10;0.10;;;;;;;;;;5026306;28;20168;-87
2021/12/30 07:44:09;;;;;;;0.20;0.20;;;;;;;;;;5046390;28;20636;-88
2021/12/30 07:46:35;;;;;;;0.20;0.20;;;;;;;;;;5044177;28;20047;-87
2021/12/30 07:49:01;;;;;;;0.20;0.20;;;;;;;;;;5040787;28;20513;-87
2021/12/30 07:51:29;;;;;;;0.23;0.23;;;;;;;;;;5039704;28;20662;-88
2021/12/30 07:53:55;;;;;;;0.20;0.20;;;;;;;;;;5040991;28;20025;-87
2021/12/30 07:56:21;;;;;;;0.20;0.20;;;;;;;;;;5024237;28;20055;-87
2021/12/30 07:58:47;;;;;;;0.20;0.20;;;;;;;;;;5041742;28;20043;-88
2021/12/30 08:01:13;;;;;;;0.20;0.20;;;;;;;;;;5041865;28;20029;-87
2021/12/30 08:03:39;;;;;;;0.20;0.20;;;;;;;;;;5040885;28;20028;-88
2021/12/30 08:06:05;;;;;;;0.17;0.17;;;;;;;;;;5041059;28;20606;-87
2021/12/30 08:08:32;;;;;;;0.10;0.10;;;;;;;;;;5042603;28;20497;-88
2021/12/30 08:10:58;;;;;;;0.20;0.20;;;;;;;;;;5040975;28;20041;-89
2021/12/30 08:13:24;;;;;;;0.20;0.20;;;;;;;;;;5042299;28;20025;-89
2021/12/30 08:15:51;;;;;;;0.20;0.20;;;;;;;;;;5042954;28;20044;-88
2021/12/30 08:18:17;;;;;;;0.10;0.10;;;;;;;;;;5044531;28;20047;-87
2021/12/30 08:20:43;;;;;;;0.20;0.20;;;;;;;;;;5044438;28;20040;-87
2021/12/30 08:23:09;;;;;;;0.20;0.20;;;;;;;;;;5040880;28;20543;-87
2021/12/30 08:25:35;;;;;;;0.10;0.10;;;;;;;;;;5043244;28;20037;-87
2021/12/30 08:28:02;;;;;;;0.10;0.10;;;;;;;;;;5037996;28;20035;-87
2021/12/30 08:30:28;;;;;;;0.20;0.20;;;;;;;;;;5043974;28;20788;-86
2021/12/30 08:32:54;;;;;;;0.10;0.10;;;;;;;;;;5044078;28;20025;-87
2021/12/30 08:35:21;;;;;;;0.20;0.20;;;;;;;;;;5044596;28;20037;-86
2021/12/30 08:37:47;;;;;;;0.20;0.20;;;;;;;;;;5025993;28;20198;-87
2021/12/30 08:40:14;;;;;;;0.10;0.10;;;;;;;;;;5042338;28;20035;-87
2021/12/30 08:42:41;;;;;;;0.25;0.25;;;;;;;;;;5044245;28;20084;-86
2021/12/30 08:45:08;;;;;;;0.17;0.17;;;;;;;;;;5043245;28;20029;-87
2021/12/30 08:47:34;;;;;;;;;;;;;;;;;;5044598;28;20072;-88
2021/12/30 08:50:00;;;;;;;0.20;0.20;;;;;;;;;;5044935;28;19958;-88
2021/12/30 08:52:27;;;;;;;0.20;0.20;;;;;;;;;;5041921;28;20020;-88
2021/12/30 08:54:53;;;;;;;0.17;0.17;;;;;;;;;;5041101;28;20025;-87
2021/12/30 08:57:21;;;;;;;0.25;0.25;;;;;;;;;;5040060;28;20044;-87
2021/12/30 08:59:47;;;;;;;0.20;0.20;;;;;;;;;;5039322;28;20074;-88
2021/12/30 09:02:13;;;;;;;0.53;0.30;;;;;;;;;;5045067;28;20033;-88
2021/12/30 09:04:42;;;;;;;0.20;0.20;;;;;;;;;;5024086;28;20033;-87
2021/12/30 09:07:09;;;;;;;0.20;0.20;;;;;;;;;;5039397;28;20489;-87
2021/12/30 09:09:35;;;;;;;;;;;;;;;;;;5042375;28;20108;-86
2021/12/30 09:12:01;;;;;;;0.10;0.10;;;;;;;;;;5041106;28;19995;-86
2021/12/30 09:14:27;;;;;;;0.10;0.10;;;;;;;;;;5042235;28;20029;-85
2021/12/30 09:16:53;;;;;;;0.10;0.10;;;;;;;;;;5041861;28;20051;-87
2021/12/30 09:19:19;;;;;;;0.10;0.10;;;;;;;;;;5040928;28;20056;-87
2021/12/30 09:21:46;;;;;;;0.17;0.17;;;;;;;;;;5041475;28;20041;-85
2021/12/30 09:24:12;;;;;;;0.20;0.20;;;;;;;;;;5040588;28;20037;-84
2021/12/30 09:26:39;;;;;;;0.10;0.10;;;;;;;;;;5042153;28;20029;-86
2021/12/30 09:29:10;;;;;;;0.20;0.20;;;;;;;;;;5041604;28;20098;-84
2021/12/30 09:31:38;;;;;;;0.10;0.10;;;;;;;;;;5043277;28;20032;-84
2021/12/30 09:34:04;;;;;;;0.13;0.13;;;;;;;;;;5043587;28;20028;-84
2021/12/30 09:36:30;;;;;;;0.10;0.10;;;;;;;;;;5043516;28;20086;-85
2021/12/30 09:38:56;;;;;;;0.10;0.10;;;;;;;;;;5043660;28;20039;-85
2021/12/30 09:41:22;;;;;;;0.10;0.10;;;;;;;;;;5044209;28;20059;-85
2021/12/30 09:43:48;;;;;;;0.30;0.30;;;;;;;;;;5037628;28;20091;-86
2021/12/30 09:46:16;;;;;;;0.10;0.10;;;;;;;;;;5043463;28;20029;-86
2021/12/30 09:48:43;;;;;;;0.10;0.10;;;;;;;;;;5043187;28;20144;-86
2021/12/30 09:51:09;;;;;;;0.10;0.10;;;;;;;;;;5036359;28;20029;-86
2021/12/30 09:53:36;;;;;;;0.10;0.10;;;;;;;;;;5041026;28;20059;-85
2021/12/30 09:56:02;;;;;;;0.10;0.10;;;;;;;;;;5043894;28;20135;-87
2021/12/30 09:58:29;;;;;;;0.10;0.10;;;;;;;;;;5042030;28;20066;-85
2021/12/30 10:00:55;;;;;;;0.10;0.10;;;;;;;;;;5042592;28;20043;-86
2021/12/30 10:03:22;;;;;;;0.20;0.20;;;;;;;;;;5043053;28;20470;-85
2021/12/30 10:05:48;;;;;;;0.10;0.10;;;;;;;;;;5043142;28;20494;-86
2021/12/30 10:08:14;;;;;;;0.40;0.35;;;;;;;;;;5025659;28;20033;-85
2021/12/30 10:10:42;;;;;;;0.10;0.10;;;;;;;;;;5042150;28;20064;-86
2021/12/30 10:13:21;;;;;;;0.30;0.30;;;;;;;;;;5042666;28;20306;-86
2021/12/30 10:15:48;;;;;;;0.10;0.10;;;;;;;;;;5042887;28;20048;-86
2021/12/30 10:18:14;;;;;;;0.10;0.10;;;;;;;;;;5040506;28;20143;-86
2021/12/30 10:20:42;;;;;;;0.30;0.30;;;;;;;;;;5040890;28;20557;-86
2021/12/30 10:23:10;;;;;;;0.10;0.10;;;;;;;;;;5042643;28;20041;-86
2021/12/30 10:25:37;;;;;;;0.10;0.10;;;;;;;;;;5041728;28;20025;-88
2021/12/30 10:28:40;;;;;;;0.10;0.10;;;;;;;;;;5036922;28;20037;-87
2021/12/30 10:31:12;;;;;;;0.10;0.10;;;;;;;;;;4931267;29;20038;-87
2021/12/30 10:33:59;;;;;;;0.10;0.10;;;;;;;;;;4921585;29;20146;-87
2021/12/30 10:36:29;;;;;;;0.20;0.20;;;;;;;;;;4930814;29;20532;-85
2021/12/30 10:38:56;;;;;;;0.10;0.10;;;;;;;;;;4932122;28;20171;-86
2021/12/30 10:41:25;;;;;;;0.10;0.10;;;;;;;;;;4932295;28;20217;-86
2021/12/30 10:43:53;;;;;;;0.10;0.10;;;;;;;;;;4936431;28;20128;-86
2021/12/30 10:46:23;;;;;;;0.32;0.32;;;;;;;;;;4929935;28;20043;-86
2021/12/30 10:48:49;;;;;;;0.10;0.10;;;;;;;;;;4931312;28;21068;-86
2021/12/30 10:51:15;;;;;;;0.10;0.10;;;;;;;;;;4932864;28;20031;-86
2021/12/30 10:53:41;;;;;;;0.20;0.20;;;;;;;;;;4933442;28;20039;-90
2021/12/30 10:56:20;;;;;;;0.10;0.10;;;;;;;;;;4933620;28;20512;-86
2021/12/30 10:58:46;;;;;;;0.20;0.20;;;;;;;;;;4932082;28;20046;-88
2021/12/30 11:01:16;;;;;;;0.10;0.10;;;;;;;;;;4912413;28;20043;-88
2021/12/30 11:03:42;;;;;;;0.10;0.10;;;;;;;;;;4934540;28;20035;-88
2021/12/30 11:06:12;;;;;;;0.10;0.10;;;;;;;;;;5032014;28;20184;-86
2021/12/30 11:08:38;;;;;;;0.10;0.10;;;;;;;;;;5040381;28;20060;-86
2021/12/30 11:11:23;;;;;;;0.10;0.10;;;;;;;;;;5024526;28;20032;-87
2021/12/30 11:14:03;;;;;;;0.20;0.20;;;;;;;;;;5021142;28;20037;-86
2021/12/30 11:16:29;;;;;;;0.10;0.10;;;;;;;;;;5043103;28;20043;-86
2021/12/30 11:18:56;;;;;;;0.13;0.13;;;;;;;;;;5024414;28;20477;-86
2021/12/30 11:21:54;;;;;;;0.10;0.10;;;;;;;;;;5041910;28;20087;-87
2021/12/30 11:24:21;;;;;;;0.10;0.10;;;;;;;;;;4960689;28;20890;-85
2021/12/30 11:26:47;;;;;;;0.10;0.10;;;;;;;;;;4963308;28;20030;-87
2021/12/30 11:29:13;;;;;;;0.10;0.10;;;;;;;;;;4960656;28;20940;-87
2021/12/30 11:31:39;;;;;;;0.10;0.10;;;;;;;;;;4955373;28;20118;-85
2021/12/30 11:34:05;;;;;;;0.17;0.17;;;;;;;;;;4961539;28;20035;-86
2021/12/30 11:36:33;;;;;;;0.20;0.20;;;;;;;;;;4962872;28;20039;-86
2021/12/30 11:39:11;;;;;;;0.10;0.10;;;;;;;;;;4962475;28;20042;-87
2021/12/30 11:41:39;;;;;;;0.10;0.10;;;;;;;;;;4959774;28;20160;-87
2021/12/30 11:44:05;;;;;;;0.10;0.10;;;;;;;;;;4962238;28;20554;-87
2021/12/30 11:46:38;;;;;;;0.10;0.10;;;;;;;;;;4945684;28;20043;-87
2021/12/30 11:49:05;;;;;;;0.10;0.10;;;;;;;;;;4961630;28;20049;-88
2021/12/30 11:51:46;;;;;;;0.10;0.10;;;;;;;;;;4959991;28;20126;-86
2021/12/30 11:54:30;;;;;;;0.10;0.10;;;;;;;;;;4964309;28;20046;-88
2021/12/30 11:57:15;;;;;;;0.17;0.17;;;;;;;;;;4962524;28;20038;-89
2021/12/30 11:59:41;;;;;;;0.10;0.10;;;;;;;;;;4995465;28;20119;-89
2021/12/30 12:02:40;;;;;;;0.10;0.10;;;;;;;;;;5030391;28;20329;-90
2021/12/30 12:05:24;;;;;;;0.10;0.10;;;;;;;;;;4942735;28;20039;-88
2021/12/30 12:08:04;;;;;;;0.30;0.30;;;;;;;;;;4940997;29;20137;-88
2021/12/30 12:10:30;;;;;;;0.10;0.10;;;;;;;;;;4926017;29;20093;-89
2021/12/30 12:12:56;;;;;;;0.10;0.10;;;;;;;;;;4940051;29;20126;-88
2021/12/30 12:15:22;;;;;;;0.10;0.10;;;;;;;;;;4939391;28;20398;-89
2021/12/30 12:17:48;;;;;;;0.10;0.10;;;;;;;;;;4941571;29;20078;-89
2021/12/30 12:20:16;;;;;;;0.10;0.10;;;;;;;;;;4941137;28;20034;-87
2021/12/30 12:22:42;;;;;;;0.10;0.10;;;;;;;;;;4941617;29;20147;-89
2021/12/30 12:25:11;;;;;;;0.10;0.10;;;;;;;;;;4940790;29;20376;-88
2021/12/30 12:27:38;;;;;;;0.20;0.20;;;;;;;;;;4941457;29;20524;-89
2021/12/30 12:30:06;;;;;;;0.10;0.10;;;;;;;;;;4940226;29;20054;-89
2021/12/30 12:32:35;;;;;;;0.10;0.10;;;;;;;;;;4939979;29;20035;-88
2021/12/30 12:35:03;;;;;;;0.10;0.10;;;;;;;;;;4938348;29;20505;-89
2021/12/30 12:37:32;;;;;;;0.10;0.10;;;;;;;;;;4937545;29;20132;-90
2021/12/30 12:40:06;;;;;;;0.15;0.15;;;;;;;;;;4956530;28;20065;-90
2021/12/30 12:42:58;;;;;;;0.10;0.10;;;;;;;;;;5038029;28;20125;-89
2021/12/30 12:45:33;;;;;;;0.10;0.10;;;;;;;;;;4932297;29;20046;-89
2021/12/30 12:48:18;;;;;;;0.10;0.10;;;;;;;;;;4932758;28;20043;-91
2021/12/30 12:50:46;;;;;;;0.10;0.10;;;;;;;;;;4931777;28;20089;-90
2021/12/30 12:53:24;;;;;;;0.10;0.10;;;;;;;;;;4936105;28;20035;-88
2021/12/30 12:55:55;;;;;;;0.10;0.10;;;;;;;;;;4938951;28;20096;-88
2021/12/30 12:58:22;;;;;;;0.10;0.10;;;;;;;;;;4928673;29;20042;-87
2021/12/30 13:00:49;;;;;;;0.10;0.10;;;;;;;;;;4932154;28;20791;-87
2021/12/30 13:03:28;;;;;;;0.10;0.10;;;;;;;;;;4939210;28;20142;-91
2021/12/30 13:05:56;;;;;;;0.10;0.10;;;;;;;;;;4926770;29;20037;-95
2021/12/30 13:08:22;;;;;;;0.10;0.10;;;;;;;;;;4936220;28;20520;-93
2021/12/30 13:10:48;;;;;;;0.10;0.10;;;;;;;;;;4942771;28;20042;-92
2021/12/30 13:13:27;;;;;;;0.10;0.10;;;;;;;;;;4937922;28;20039;-94
2021/12/30 13:15:54;;;;;;;0.10;0.10;;;;;;;;;;4925054;29;20432;-94
2021/12/30 13:18:20;;;;;;;0.10;0.10;;;;;;;;;;4940952;29;20147;-93
2021/12/30 13:20:48;;;;;;;0.10;0.10;;;;;;;;;;4919736;29;20032;-93
2021/12/30 13:23:25;;;;;;;0.10;0.10;;;;;;;;;;5029908;28;20036;-91
2021/12/30 13:26:15;;;;;;;0.20;0.20;;;;;;;;;;5042919;28;20524;-91
2021/12/30 13:28:48;;;;;;;0.00;0.00;;;;;;;;;;5041791;28;20024;-91
2021/12/30 13:31:16;;;;;;;0.20;0.20;;;;;;;;;;5040285;28;20028;-89
2021/12/30 13:34:01;;;;;;;0.10;0.10;;;;;;;;;;5039948;28;20296;-94
2021/12/30 13:36:28;;;;;;;0.10;0.10;;;;;;;;;;5025111;28;20041;-87
2021/12/30 13:38:54;;;;;;;0.20;0.08;;;;;;;;;;5024831;28;20021;-88
2021/12/30 13:41:22;;;;;;;0.10;0.10;;;;;;;;;;5039216;28;20056;-87
2021/12/30 13:43:48;;;;;;;0.10;0.10;;;;;;;;;;5040670;28;20033;-88
2021/12/30 13:46:16;;;;;;;0.10;0.10;;;;;;;;;;5037258;28;20056;-88
2021/12/30 13:48:44;;;;;;;0.00;0.00;;;;;;;;;;5041373;28;20025;-88
2021/12/30 13:51:24;;;;;;;0.10;0.10;;;;;;;;;;5041459;28;20028;-87
2021/12/30 13:53:51;;;;;;;0.10;0.10;;;;;;;;;;5017318;28;20524;-88
2021/12/30 13:56:27;;;;;;;0.10;0.10;;;;;;;;;;5039077;28;20410;-87
2021/12/30 13:58:55;;;;;;;18.30;1.40;;;;;;;;;;5037741;28;20119;-88
2021/12/30 14:01:23;;;;;;;0.15;0.15;;;;;;;;;;5037147;28;20098;-88
2021/12/30 14:03:50;;;;;;;0.10;0.10;;;;;;;;;;5039559;28;20155;-88
2021/12/30 14:06:17;;;;;;;0.20;0.20;;;;;;;;;;5041568;28;20035;-88
2021/12/30 14:08:49;;;;;;;0.10;0.10;;;;;;;;;;5040727;28;20490;-88
2021/12/30 14:11:15;;;;;;;0.20;0.20;;;;;;;;;;5042276;28;20033;-87
2021/12/30 14:13:42;;;;;;;0.10;0.10;;;;;;;;;;5040758;28;20029;-87
2021/12/30 14:16:10;;;;;;;0.80;0.50;;;;;;;;;;5040838;28;20041;-89
2021/12/30 14:18:37;;;;;;;0.10;0.10;;;;;;;;;;5041578;28;20028;-88
2021/12/30 14:21:02;;;;;;;;;;;;;;;;;;5039417;28;20064;-88
2021/12/30 14:23:37;;;;;;;0.10;0.10;;;;;;;;;;5037261;28;20266;-88
2021/12/30 14:26:19;;;;;;;0.10;0.10;;;;;;;;;;5041879;28;20822;-87
2021/12/30 14:28:50;;;;;;;0.08;0.08;;;;;;;;;;5040080;28;20032;-88
2021/12/30 14:31:23;;;;;;;0.00;0.00;;;;;;;;;;5032382;28;20660;-89
2021/12/30 14:34:10;;;;;;;0.10;0.10;;;;;;;;;;5038942;28;20025;-89
2021/12/30 14:36:48;;;;;;;0.10;0.10;;;;;;;;;;5041184;28;20044;-88
2021/12/30 14:39:18;;;;;;;0.00;0.00;;;;;;;;;;5022837;28;20067;-88
2021/12/30 14:41:44;;;;;;;0.20;0.20;;;;;;;;;;5041032;28;21027;-86
2021/12/30 14:44:16;;;;;;;0.10;0.10;;;;;;;;;;5040913;28;20219;-92
2021/12/30 14:46:43;;;;;;;0.10;0.10;;;;;;;;;;5036470;28;20283;-90